• Join FlightAware (Why Join?)
  • Login
  • US Flag 
04:01AM EDT


 

Airport Tracker/Info


-or-


 

Live Flight TrackerFlight Track Log ✈ JZA8745 ✈ 12-May-2013 ✈ CZBF - CYUL

Flight Track Log - Related Links

Times and Time Zones

All times are in EDT time to prevent confusion due to time zone crossing. See the JZA8745 flight status page for this flight to view local times or setup timezone preferences in your user account.

Time Position Orientation Groundspeed Altitude Reporting Facility
EDT Latitude Longitude Course Direction KTS MPH feet Rate Location/Type
03:04PM 47.5833 -65.7167 240° Southwest 180 207 4,400  Level Moncton Center
03:05PM 47.5500 -65.7667 225° Southwest 170 196 5,700 1,200 Climbing Moncton Center
03:06PM 47.5333 -65.8333 250° West 170 196 6,800 1,140 Climbing Moncton Center
03:07PM 47.5167 -65.9167 254° West 160 184 8,000 1,200 Climbing Moncton Center
03:08PM 47.5000 -65.9667 244° Southwest 160 184 9,200 1,200 Climbing Moncton Center
03:09PM 47.3930 -66.3718 240° Southwest  Level FlightAware Approximate
03:09PM 47.4667 -66.0333 234° Southwest 160 184 10,400  Level Moncton Center
03:10PM 47.3628 -66.4502 240° Southwest  Level FlightAware Approximate
03:10PM 47.4500 -66.0833 244° Southwest 170 196 11,300  Level Moncton Center
03:11PM 47.4333 -66.1500 250° West 170 196 12,200 900 Climbing Moncton Center
03:12PM 47.4167 -66.2333 254° West 170 196 13,100 900 Climbing Moncton Center
03:13PM 47.3833 -66.2833 225° Southwest 180 207 14,000 840 Climbing Moncton Center
03:14PM 47.3667 -66.3500 250° West 180 207 14,800 900 Climbing Moncton Center
03:15PM 47.3500 -66.4167 250° West 180 207 15,800 840 Climbing Moncton Center
03:16PM 47.3333 -66.4667 244° Southwest 190 219 16,500 720 Climbing Moncton Center
03:17PM 47.3000 -66.5500 239° Southwest 180 207 17,300 960 Climbing Moncton Center
03:18PM 47.2833 -66.6167 250° West 180 207 18,500 900 Climbing Moncton Center
03:19PM 47.2667 -66.6833 250° West 180 207 19,200 720 Climbing Moncton Center
03:20PM 47.2333 -66.7333 226° Southwest 170 196 20,000 360 Climbing Moncton Center
03:21PM 47.2000 -66.8167 240° Southwest 180 207 20,000  Level Moncton Center
03:22PM 47.1833 -66.8833 250° West 190 219 20,000  Level Moncton Center
03:23PM 47.1667 -66.9500 250° West 200 230 20,000  Level Moncton Center
03:24PM 47.1333 -67.0333 240° Southwest 210 242 20,000  Level Moncton Center
03:25PM 47.1219 -67.0961 255° West 209 241 20,000  Level Boston Center
03:26PM 47.0986 -67.1778 247° West 209 241 20,000  Level Boston Center
03:27PM 47.0706 -67.2536 242° Southwest 209 241 20,000  Level Boston Center
03:28PM 47.0408 -67.3356 242° Southwest 214 246 20,000  Level Boston Center
03:29PM 47.0150 -67.4108 243° Southwest 224 258 20,000  Level Boston Center
03:30PM 46.9853 -67.4958 243° Southwest 224 258 20,000  Level Boston Center
03:31PM 46.9572 -67.5714 241° Southwest 224 258 20,000  Level Boston Center
03:32PM 46.9294 -67.6589 245° Southwest 236 272 20,000  Level Boston Center
03:33PM 46.9011 -67.7311 240° Southwest 231 266 20,000  Level Boston Center
03:34PM 46.8714 -67.8186 244° Southwest 231 266 20,000  Level Boston Center
03:35PM 46.8450 -67.8936 243° Southwest 229 264 20,000  Level Boston Center
03:36PM 46.8169 -67.9719 242° Southwest 229 264 20,000  Level Boston Center
03:37PM 46.7889 -68.0561 244° Southwest 251 289 20,000 -60 Level Boston Center
03:38PM 46.7606 -68.1369 243° Southwest 232 267 19,900  Descending Boston Center
03:39PM 46.7386 -68.2206 249° West 227 261 20,000  Climbing Boston Center
03:40PM 46.7147 -68.3069 248° West 227 261 20,000  Level Boston Center
03:41PM 46.6903 -68.3875 246° West 222 255 20,000  Level Boston Center
03:42PM 46.6642 -68.4742 246° West 222 255 20,000  Level Boston Center
03:43PM 46.6378 -68.5575 245° Southwest 222 255 20,000  Level Boston Center
03:44PM 46.6117 -68.6469 247° West 233 268 20,000  Level Boston Center
03:45PM 46.5833 -68.7425 247° West 233 268 20,000  Level Boston Center
03:46PM 46.5589 -68.8286 248° West 233 268 20,000  Level Boston Center
03:48PM 46.5000 -68.9667 238° Southwest 230 265 20,000  Level Montreal Center
03:49PM 46.4792 -69.0869 256° West 234 269 20,000  Level Boston Center
03:50PM 46.4544 -69.1728 247° West 239 275 20,000  Level Boston Center
03:51PM 46.4294 -69.2436 243° Southwest 234 269 20,000  Level Boston Center
03:52PM 46.4025 -69.3264 245° Southwest 229 264 20,000  Level Boston Center
03:53PM 46.3775 -69.4089 246° West 229 264 20,000  Level Boston Center
03:54PM 46.3528 -69.4944 247° West 229 264 20,000  Level Boston Center
03:55PM 46.3297 -69.5767 248° West 229 264 20,000  Level Boston Center
03:56PM 46.3025 -69.6592 244° Southwest 229 264 20,000  Level Boston Center
03:57PM 46.2756 -69.7447 246° West 229 264 20,000  Level Boston Center
03:58PM 46.2503 -69.8239 245° Southwest 229 264 20,000  Level Boston Center
03:59PM 46.2231 -69.9092 245° Southwest 234 269 20,000  Level Boston Center
04:00PM 46.1975 -69.9911 246° West 234 269 20,000  Level Boston Center
04:01PM 46.1681 -70.0764 244° Southwest 234 269 20,000  Level Boston Center
04:02PM 46.1447 -70.1581 248° West 234 269 20,000  Level Boston Center
04:03PM 46.1167 -70.1667 192° South 230 265 20,000  Level Montreal Center
04:04PM 46.1000 -70.2667 257° West 230 265 20,000  Level Montreal Center
04:05PM 46.0667 -70.3333 234° Southwest 230 265 20,000  Level Montreal Center
04:05PM 46.0500 -70.4333 257° West 230 265 20,000  Level Moncton Center
04:06PM 46.0333 -70.4333 180° South 230 265 20,000  Level Montreal Center
04:07PM 46.0167 -70.5000 250° West 230 265 20,000  Level Montreal Center
04:08PM 46.0000 -70.5833 254° West 230 265 20,000  Level Montreal Center
04:09PM 45.9667 -70.6667 240° Southwest 230 265 20,000  Level Montreal Center
04:10PM 45.9333 -70.7667 244° Southwest 230 265 20,000  Level Montreal Center
04:11PM 45.9000 -70.8333 234° Southwest 230 265 20,000  Level Montreal Center
04:12PM 45.9167 -70.9333 284° West 240 276 20,000  Level Montreal Center
04:13PM 45.9000 -71.0333 257° West 240 276 20,000  Level Montreal Center
04:14PM 45.8833 -71.1333 257° West 240 276 20,000  Level Montreal Center
04:15PM 45.8833 -71.2000 270° West 220 253 20,000  Level Montreal Center
04:16PM 45.8833 -71.3000 270° West 210 242 20,000  Level Montreal Center
04:17PM 45.8667 -71.3667 250° West 200 230 20,000  Level Montreal Center
04:18PM 45.8667 -71.4667 270° West 210 242 20,000  Level Montreal Center
04:19PM 45.8500 -71.5333 250° West 210 242 20,000 -300 Level Montreal Center
04:20PM 45.8333 -71.6333 257° West 210 242 19,500 -540 Descending Montreal Center
04:21PM 45.8500 -71.7000 290° West 210 242 19,000 -540 Descending Montreal Center
04:22PM 45.8333 -71.7833 254° West 210 242 18,500 -300 Descending Montreal Center
04:23PM 45.8167 -71.8833 257° West 210 242 18,500 -660 Level Montreal Center
04:24PM 45.8167 -71.9500 270° West 200 230 17,200 -900 Descending Montreal Center
04:25PM 45.8000 -72.0500 257° West 200 230 16,700 -540 Descending Montreal Center
04:26PM 45.7833 -72.1167 250° West 210 242 16,200 -540 Descending Montreal Center
04:27PM 45.8000 -72.2167 283° West 240 276 15,700 -480 Descending Montreal Center
04:28PM 45.7833 -72.3167 257° West 260 299 15,300 -480 Descending Montreal Center
04:29PM 45.7667 -72.4333 258° West 260 299 14,800 -780 Descending Montreal Center
04:30PM 45.7500 -72.5333 257° West 270 311 13,800 -1,020 Descending Montreal Center
04:31PM 45.7333 -72.6333 257° West 260 299 12,800 -1,020 Descending Montreal Center
04:32PM 45.7500 -72.7333 283° West 230 265 11,800 -1,080 Descending Montreal Center
04:33PM 45.7333 -72.8167 254° West 240 276 10,700 -1,080 Descending Montreal Center
04:34PM 45.7167 -72.9167 257° West 250 288 9,700 -1,020 Descending Montreal Center
04:35PM 45.7000 -73.0167 257° West 240 276 8,700 -1,020 Descending Montreal Center
04:36PM 45.7000 -73.0833 270° West 230 265 7,700 -900 Descending Montreal Center
04:37PM 45.6833 -73.1667 254° West 170 196 7,000 -840 Descending Montreal Center
04:38PM 45.6667 -73.2333 250° West 190 219 6,100 -900 Descending Montreal Center
04:39PM 45.6667 -73.3333 270° West 220 253 5,200 -1,020 Descending Montreal Center
04:40PM 45.6500 -73.4000 250° West 210 242 4,100 -600 Descending Montreal Center
04:41PM 45.6333 -73.4833 254° West 180 207 4,000 -180 Descending Montreal Center
04:42PM 45.6167 -73.5500 250° West 180 207 3,800 -600 Descending Montreal Center
04:43PM 45.5833 -73.6000 226° Southwest 170 196 2,900 -900 Descending Montreal Center
04:44PM 45.5500 -73.6167 199° South 140 161 2,100 -780 Descending Montreal Center
04:45PM 45.5167 -73.6667 226° Southwest 140 161 1,400 -720 Descending Montreal Center